Rankings de siempre
Mejores tiempos personales válidos de equipo a través de todos los eventos y temporadas. Cada equipo aparece una vez por división.
Busca por nombre y abre la página donde está clasificado este récord de división.
133,335 equipos clasificados
| Pos. | Pos. AG | Equipo | Nacionalidad | Categoría de edad | TiempoMejor tiempo | Diferencia |
|---|---|---|---|---|---|---|
| 133201 | #16594 | Swapnesh Patel & Priya PatelIND · X 35-39 · AG #16594 | IND | X 35-39 | 2:45:38 | +116:25 |
| 133202 | #18011 | Prarthana Nirni & Ravi KumarIND · X 40-44 · AG #18011 | IND | X 40-44 | 2:45:41 | +116:28 |
| 133203 | #46419 | Elisabete Mortal & Henrique OleiroPOR · X 30-34 · AG #46419 | POR | X 30-34 | 2:45:46 | +116:33 |
| 133204 | #46420 | 家瑜 詹 & 于立 吳TPE · X 30-34 · AG #46420 | TPE | X 30-34 | 2:46:06 | +116:53 |
| 133205 | #46421 | Jacyln Neo & Donovan TanSIN · X 30-34 · AG #46421 | SIN | X 30-34 | 2:46:06 | +116:53 |
| 133206 | #4543 | Dohar Silalahi & Ashley DawsonUSA · X 45-49 · AG #4543 | USA | X 45-49 | 2:46:20 | +117:07 |
| 133207 | #20281 | Rafał Padewski & Alicja WołoszykPOL · X 25-29 · AG #20281 | POL | X 25-29 | 2:46:20 | +117:07 |
| 133208 | #46422 | Molly Crowley & Earl GranvilleUSA · X 30-34 · AG #46422 | USA | X 30-34 | 2:46:29 | +117:16 |
| 133209 | #18012 | Melissa Mejia & Lambert ManansalaUSA · X 40-44 · AG #18012 | USA | X 40-44 | 2:46:32 | +117:19 |
| 133210 | #585 | Desmond Travis & Jeana Spencer-RooksUSA · X 55-59 · AG #585 | USA | X 55-59 | 2:46:43 | +117:30 |
| 133211 | #46423 | Skyler Morgan & Annie MorganUSA · X 30-34 · AG #46423 | USA | X 30-34 | 2:47:10 | +117:57 |
| 133212 | #46424 | Dinesh Kumar Balaji & Thejeaswini Corametla JayaanandhIND · X 30-34 · AG #46424 | IND | X 30-34 | 2:47:19 | +118:06 |
| 133213 | #20282 | Omar Huerta Galindo & Mariela Isidoro CámaraMEX · X 25-29 · AG #20282 | MEX | X 25-29 | 2:47:21 | +118:08 |
| 133214 | #18013 | Saurev Goel & Priya GoelX 40-44 · AG #18013 | -- | X 40-44 | 2:47:28 | +118:15 |
| 133215 | #46425 | Raymir Tan & Marga TanPHI · X 30-34 · AG #46425 | PHI | X 30-34 | 2:47:30 | +118:17 |
| 133216 | #16595 | Gleicy Campelo & Josué AlvesBRA · X 35-39 · AG #16595 | BRA | X 35-39 | 2:47:32 | +118:19 |
| 133217 | #46426 | Lucia Gagliardi & Matteo Gianluca BarabinoITA · X 30-34 · AG #46426 | ITA | X 30-34 | 2:47:39 | +118:26 |
| 133218 | #3185 | Chrystal Marais & Emil MaraisRSA · X 50-54 · AG #3185 | RSA | X 50-54 | 2:47:40 | +118:27 |
| 133219 | -- | 湘 李 & 华雨 陈CHN · X XU29 | CHN | X XU29 | 2:47:41 | +118:28 |
| 133220 | #46427 | Sarath MV & Rachana RIND · X 30-34 · AG #46427 | IND | X 30-34 | 2:47:49 | +118:36 |
| 133221 | #16596 | Rahul Nair & Mithali AminIND · X 35-39 · AG #16596 | IND | X 35-39 | 2:48:06 | +118:53 |
| 133222 | #16597 | Christopher Zavala & Cynthia MuratallaMEX · X 35-39 · AG #16597 | MEX | X 35-39 | 2:48:15 | +119:02 |
| 133223 | #20283 | Casteel Johnson & Imani BuggsUSA · X 25-29 · AG #20283 | USA | X 25-29 | 2:48:18 | +119:05 |
| 133224 | #20284 | Chris Nguyen & Cindy HuynhUSA · X 25-29 · AG #20284 | USA | X 25-29 | 2:48:25 | +119:12 |
| 133225 | #16598 | Elvitz Marcela Rodriguez Cruz & Pedro Eduardo Lara RodriguezMEX · X 35-39 · AG #16598 | MEX | X 35-39 | 2:48:36 | +119:23 |
Página 5,329 de 5,334